sensor_id;sensor_type;location;lat;lon;timestamp;P1;durP1;ratioP1;P2;durP2;ratioP2
22603;SDS011;11469;49.024;8.246;2022-08-19T00:01:36;15.60;;;13.05;;
22603;SDS011;11469;49.024;8.246;2022-08-19T00:04:03;16.58;;;12.68;;
22603;SDS011;11469;49.024;8.246;2022-08-19T00:06:34;16.77;;;13.35;;
22603;SDS011;11469;49.024;8.246;2022-08-19T00:09:01;18.75;;;13.93;;
22603;SDS011;11469;49.024;8.246;2022-08-19T00:11:28;17.00;;;12.40;;
22603;SDS011;11469;49.024;8.246;2022-08-19T00:13:55;19.02;;;14.38;;
22603;SDS011;11469;49.024;8.246;2022-08-19T00:16:21;17.98;;;13.93;;
22603;SDS011;11469;49.024;8.246;2022-08-19T00:18:49;18.83;;;15.40;;
22603;SDS011;11469;49.024;8.246;2022-08-19T00:21:14;17.58;;;13.65;;
22603;SDS011;11469;49.024;8.246;2022-08-19T00:23:40;17.75;;;14.68;;
22603;SDS011;11469;49.024;8.246;2022-08-19T00:26:08;19.55;;;15.25;;
22603;SDS011;11469;49.024;8.246;2022-08-19T00:28:35;18.77;;;15.65;;
22603;SDS011;11469;49.024;8.246;2022-08-19T00:31:01;17.50;;;14.10;;
22603;SDS011;11469;49.024;8.246;2022-08-19T00:33:28;15.88;;;14.07;;
22603;SDS011;11469;49.024;8.246;2022-08-19T00:35:57;19.63;;;14.43;;
22603;SDS011;11469;49.024;8.246;2022-08-19T00:38:23;18.95;;;15.50;;
22603;SDS011;11469;49.024;8.246;2022-08-19T00:40:49;20.00;;;15.88;;
22603;SDS011;11469;49.024;8.246;2022-08-19T00:43:18;21.65;;;16.25;;
22603;SDS011;11469;49.024;8.246;2022-08-19T00:45:45;24.10;;;17.90;;
22603;SDS011;11469;49.024;8.246;2022-08-19T00:48:11;26.40;;;17.48;;
22603;SDS011;11469;49.024;8.246;2022-08-19T00:50:38;23.17;;;17.83;;
22603;SDS011;11469;49.024;8.246;2022-08-19T00:53:05;21.30;;;16.67;;
22603;SDS011;11469;49.024;8.246;2022-08-19T00:55:32;20.75;;;16.17;;
22603;SDS011;11469;49.024;8.246;2022-08-19T00:58:02;24.23;;;17.85;;
22603;SDS011;11469;49.024;8.246;2022-08-19T01:00:32;22.13;;;17.48;;
22603;SDS011;11469;49.024;8.246;2022-08-19T01:03:06;23.27;;;16.15;;
22603;SDS011;11469;49.024;8.246;2022-08-19T01:05:41;20.63;;;15.57;;
22603;SDS011;11469;49.024;8.246;2022-08-19T01:08:08;20.85;;;16.23;;
22603;SDS011;11469;49.024;8.246;2022-08-19T01:10:39;22.70;;;16.08;;
22603;SDS011;11469;49.024;8.246;2022-08-19T01:13:08;21.27;;;17.33;;
22603;SDS011;11469;49.024;8.246;2022-08-19T01:15:38;21.27;;;16.33;;
22603;SDS011;11469;49.024;8.246;2022-08-19T01:18:09;21.15;;;16.30;;
22603;SDS011;11469;49.024;8.246;2022-08-19T01:20:36;24.77;;;17.00;;
22603;SDS011;11469;49.024;8.246;2022-08-19T01:23:03;31.27;;;17.27;;
22603;SDS011;11469;49.024;8.246;2022-08-19T01:25:31;24.63;;;18.40;;
22603;SDS011;11469;49.024;8.246;2022-08-19T01:28:01;23.58;;;18.27;;
22603;SDS011;11469;49.024;8.246;2022-08-19T01:30:30;22.35;;;17.85;;
22603;SDS011;11469;49.024;8.246;2022-08-19T01:32:57;24.15;;;18.05;;
22603;SDS011;11469;49.024;8.246;2022-08-19T01:35:25;22.02;;;17.05;;
22603;SDS011;11469;49.024;8.246;2022-08-19T01:37:54;21.63;;;16.63;;
22603;SDS011;11469;49.024;8.246;2022-08-19T01:40:23;25.30;;;17.10;;
22603;SDS011;11469;49.024;8.246;2022-08-19T01:42:51;25.25;;;18.60;;
22603;SDS011;11469;49.024;8.246;2022-08-19T01:45:18;21.73;;;17.63;;
22603;SDS011;11469;49.024;8.246;2022-08-19T01:47:45;21.58;;;15.82;;
22603;SDS011;11469;49.024;8.246;2022-08-19T01:50:11;25.25;;;18.42;;
22603;SDS011;11469;49.024;8.246;2022-08-19T01:52:38;23.73;;;17.10;;
22603;SDS011;11469;49.024;8.246;2022-08-19T01:55:06;22.05;;;17.05;;
22603;SDS011;11469;49.024;8.246;2022-08-19T01:57:35;22.80;;;16.75;;
22603;SDS011;11469;49.024;8.246;2022-08-19T02:00:04;25.10;;;18.65;;
22603;SDS011;11469;49.024;8.246;2022-08-19T02:02:34;24.35;;;19.35;;
22603;SDS011;11469;49.024;8.246;2022-08-19T02:04:59;25.50;;;17.95;;
22603;SDS011;11469;49.024;8.246;2022-08-19T02:07:25;26.15;;;18.33;;
22603;SDS011;11469;49.024;8.246;2022-08-19T02:09:50;22.23;;;17.60;;
22603;SDS011;11469;49.024;8.246;2022-08-19T02:12:16;23.58;;;17.60;;
22603;SDS011;11469;49.024;8.246;2022-08-19T02:14:41;23.17;;;17.30;;
22603;SDS011;11469;49.024;8.246;2022-08-19T02:17:07;28.45;;;18.77;;
22603;SDS011;11469;49.024;8.246;2022-08-19T02:19:33;22.15;;;17.00;;
22603;SDS011;11469;49.024;8.246;2022-08-19T02:21:59;23.88;;;16.27;;
22603;SDS011;11469;49.024;8.246;2022-08-19T02:24:25;24.38;;;16.88;;
22603;SDS011;11469;49.024;8.246;2022-08-19T02:26:52;21.50;;;17.20;;
22603;SDS011;11469;49.024;8.246;2022-08-19T02:29:17;21.65;;;16.10;;
22603;SDS011;11469;49.024;8.246;2022-08-19T02:31:43;20.25;;;16.90;;
22603;SDS011;11469;49.024;8.246;2022-08-19T02:34:08;21.98;;;17.30;;
22603;SDS011;11469;49.024;8.246;2022-08-19T02:36:34;24.63;;;17.45;;
22603;SDS011;11469;49.024;8.246;2022-08-19T02:38:59;22.90;;;18.33;;
22603;SDS011;11469;49.024;8.246;2022-08-19T02:41:26;21.60;;;18.17;;
22603;SDS011;11469;49.024;8.246;2022-08-19T02:43:55;21.85;;;17.67;;
22603;SDS011;11469;49.024;8.246;2022-08-19T02:46:27;21.15;;;16.95;;
22603;SDS011;11469;49.024;8.246;2022-08-19T02:48:56;19.30;;;16.23;;
22603;SDS011;11469;49.024;8.246;2022-08-19T02:51:24;24.95;;;19.80;;
22603;SDS011;11469;49.024;8.246;2022-08-19T02:53:54;21.20;;;16.98;;
22603;SDS011;11469;49.024;8.246;2022-08-19T02:56:21;23.70;;;17.17;;
22603;SDS011;11469;49.024;8.246;2022-08-19T02:58:47;20.50;;;17.17;;
22603;SDS011;11469;49.024;8.246;2022-08-19T03:01:46;21.90;;;17.20;;
22603;SDS011;11469;49.024;8.246;2022-08-19T03:04:08;23.88;;;16.98;;
22603;SDS011;11469;49.024;8.246;2022-08-19T03:06:41;24.05;;;18.45;;
22603;SDS011;11469;49.024;8.246;2022-08-19T03:09:08;23.30;;;17.58;;
22603;SDS011;11469;49.024;8.246;2022-08-19T03:11:34;22.85;;;18.63;;
22603;SDS011;11469;49.024;8.246;2022-08-19T03:14:00;22.20;;;18.55;;
22603;SDS011;11469;49.024;8.246;2022-08-19T03:16:29;22.20;;;17.73;;
22603;SDS011;11469;49.024;8.246;2022-08-19T03:18:57;37.15;;;20.17;;
22603;SDS011;11469;49.024;8.246;2022-08-19T03:21:26;24.98;;;18.60;;
22603;SDS011;11469;49.024;8.246;2022-08-19T03:23:56;25.05;;;19.10;;
22603;SDS011;11469;49.024;8.246;2022-08-19T03:26:23;26.20;;;19.33;;
22603;SDS011;11469;49.024;8.246;2022-08-19T03:28:49;25.65;;;19.55;;
22603;SDS011;11469;49.024;8.246;2022-08-19T03:31:15;24.95;;;19.52;;
22603;SDS011;11469;49.024;8.246;2022-08-19T03:33:42;23.13;;;18.33;;
22603;SDS011;11469;49.024;8.246;2022-08-19T03:36:10;25.20;;;18.83;;
22603;SDS011;11469;49.024;8.246;2022-08-19T03:38:39;23.05;;;19.27;;
22603;SDS011;11469;49.024;8.246;2022-08-19T03:41:09;26.80;;;21.52;;
22603;SDS011;11469;49.024;8.246;2022-08-19T03:43:37;24.77;;;20.42;;
22603;SDS011;11469;49.024;8.246;2022-08-19T03:46:05;27.90;;;21.48;;
22603;SDS011;11469;49.024;8.246;2022-08-19T03:48:36;26.42;;;20.33;;
22603;SDS011;11469;49.024;8.246;2022-08-19T03:51:04;25.85;;;21.35;;
22603;SDS011;11469;49.024;8.246;2022-08-19T03:53:31;28.30;;;22.15;;
22603;SDS011;11469;49.024;8.246;2022-08-19T03:55:57;24.85;;;20.15;;
22603;SDS011;11469;49.024;8.246;2022-08-19T03:58:27;25.85;;;20.40;;
22603;SDS011;11469;49.024;8.246;2022-08-19T04:00:57;27.08;;;20.67;;
22603;SDS011;11469;49.024;8.246;2022-08-19T04:03:24;23.20;;;17.98;;
22603;SDS011;11469;49.024;8.246;2022-08-19T04:05:51;24.63;;;19.13;;
22603;SDS011;11469;49.024;8.246;2022-08-19T04:08:16;24.35;;;19.70;;
22603;SDS011;11469;49.024;8.246;2022-08-19T04:10:47;24.25;;;19.25;;
22603;SDS011;11469;49.024;8.246;2022-08-19T04:13:14;24.65;;;19.05;;
22603;SDS011;11469;49.024;8.246;2022-08-19T04:15:41;26.75;;;19.65;;
22603;SDS011;11469;49.024;8.246;2022-08-19T04:18:08;19.67;;;17.08;;
22603;SDS011;11469;49.024;8.246;2022-08-19T04:20:45;22.98;;;18.08;;
22603;SDS011;11469;49.024;8.246;2022-08-19T04:23:12;23.17;;;18.55;;
22603;SDS011;11469;49.024;8.246;2022-08-19T04:25:39;26.92;;;19.65;;
22603;SDS011;11469;49.024;8.246;2022-08-19T04:28:05;25.02;;;19.58;;
22603;SDS011;11469;49.024;8.246;2022-08-19T04:30:37;25.25;;;18.95;;
22603;SDS011;11469;49.024;8.246;2022-08-19T04:33:10;25.63;;;20.55;;
22603;SDS011;11469;49.024;8.246;2022-08-19T04:35:39;29.02;;;20.77;;
22603;SDS011;11469;49.024;8.246;2022-08-19T04:38:06;22.95;;;19.15;;
22603;SDS011;11469;49.024;8.246;2022-08-19T04:40:32;26.50;;;18.73;;
22603;SDS011;11469;49.024;8.246;2022-08-19T04:43:16;25.30;;;18.73;;
22603;SDS011;11469;49.024;8.246;2022-08-19T04:45:44;26.65;;;19.48;;
22603;SDS011;11469;49.024;8.246;2022-08-19T04:48:11;26.58;;;21.27;;
22603;SDS011;11469;49.024;8.246;2022-08-19T04:50:39;24.77;;;19.92;;
22603;SDS011;11469;49.024;8.246;2022-08-19T04:53:06;27.58;;;20.50;;
22603;SDS011;11469;49.024;8.246;2022-08-19T04:55:31;29.55;;;22.30;;
22603;SDS011;11469;49.024;8.246;2022-08-19T04:57:57;26.17;;;19.70;;
22603;SDS011;11469;49.024;8.246;2022-08-19T05:00:22;26.70;;;20.45;;
22603;SDS011;11469;49.024;8.246;2022-08-19T05:02:48;27.50;;;21.52;;
22603;SDS011;11469;49.024;8.246;2022-08-19T05:05:14;27.45;;;21.67;;
22603;SDS011;11469;49.024;8.246;2022-08-19T05:07:40;29.63;;;21.40;;
22603;SDS011;11469;49.024;8.246;2022-08-19T05:10:06;35.13;;;23.55;;
22603;SDS011;11469;49.024;8.246;2022-08-19T05:12:32;31.33;;;23.02;;
22603;SDS011;11469;49.024;8.246;2022-08-19T05:14:58;27.90;;;20.58;;
22603;SDS011;11469;49.024;8.246;2022-08-19T05:17:25;27.83;;;22.20;;
22603;SDS011;11469;49.024;8.246;2022-08-19T05:19:51;32.30;;;21.48;;
22603;SDS011;11469;49.024;8.246;2022-08-19T05:22:35;29.00;;;21.10;;
22603;SDS011;11469;49.024;8.246;2022-08-19T05:25:01;22.80;;;17.85;;
22603;SDS011;11469;49.024;8.246;2022-08-19T05:27:29;26.08;;;20.10;;
22603;SDS011;11469;49.024;8.246;2022-08-19T05:29:54;26.23;;;20.45;;
22603;SDS011;11469;49.024;8.246;2022-08-19T05:32:19;30.23;;;22.23;;
22603;SDS011;11469;49.024;8.246;2022-08-19T05:34:46;27.92;;;20.98;;
22603;SDS011;11469;49.024;8.246;2022-08-19T05:37:12;26.35;;;21.20;;
22603;SDS011;11469;49.024;8.246;2022-08-19T05:39:37;26.17;;;20.00;;
22603;SDS011;11469;49.024;8.246;2022-08-19T05:42:04;26.38;;;19.85;;
22603;SDS011;11469;49.024;8.246;2022-08-19T05:44:33;26.13;;;20.17;;
22603;SDS011;11469;49.024;8.246;2022-08-19T05:47:01;25.55;;;21.13;;
22603;SDS011;11469;49.024;8.246;2022-08-19T05:49:29;28.85;;;22.27;;
22603;SDS011;11469;49.024;8.246;2022-08-19T05:51:56;26.80;;;20.80;;
22603;SDS011;11469;49.024;8.246;2022-08-19T05:54:23;27.00;;;20.80;;
22603;SDS011;11469;49.024;8.246;2022-08-19T05:56:52;26.95;;;20.83;;
22603;SDS011;11469;49.024;8.246;2022-08-19T05:59:19;26.67;;;20.77;;
22603;SDS011;11469;49.024;8.246;2022-08-19T06:01:47;25.17;;;20.40;;
22603;SDS011;11469;49.024;8.246;2022-08-19T06:04:16;22.98;;;18.45;;
22603;SDS011;11469;49.024;8.246;2022-08-19T06:06:44;23.02;;;19.48;;
22603;SDS011;11469;49.024;8.246;2022-08-19T06:09:10;24.10;;;20.73;;
22603;SDS011;11469;49.024;8.246;2022-08-19T06:11:40;25.05;;;18.15;;
22603;SDS011;11469;49.024;8.246;2022-08-19T06:14:09;26.40;;;19.63;;
22603;SDS011;11469;49.024;8.246;2022-08-19T06:16:37;23.45;;;19.20;;
22603;SDS011;11469;49.024;8.246;2022-08-19T06:19:06;25.77;;;18.58;;
22603;SDS011;11469;49.024;8.246;2022-08-19T06:21:33;23.45;;;19.42;;
22603;SDS011;11469;49.024;8.246;2022-08-19T06:24:02;20.95;;;18.30;;
22603;SDS011;11469;49.024;8.246;2022-08-19T06:26:29;22.70;;;18.25;;
22603;SDS011;11469;49.024;8.246;2022-08-19T06:28:55;20.55;;;17.85;;
22603;SDS011;11469;49.024;8.246;2022-08-19T06:31:25;24.15;;;17.85;;
22603;SDS011;11469;49.024;8.246;2022-08-19T06:33:52;20.10;;;17.15;;
22603;SDS011;11469;49.024;8.246;2022-08-19T06:36:22;20.77;;;17.75;;
22603;SDS011;11469;49.024;8.246;2022-08-19T06:38:49;27.40;;;19.30;;
22603;SDS011;11469;49.024;8.246;2022-08-19T06:41:14;22.02;;;16.80;;
22603;SDS011;11469;49.024;8.246;2022-08-19T06:43:40;22.10;;;17.35;;
22603;SDS011;11469;49.024;8.246;2022-08-19T06:46:14;22.17;;;16.70;;
22603;SDS011;11469;49.024;8.246;2022-08-19T06:48:41;21.05;;;16.83;;
22603;SDS011;11469;49.024;8.246;2022-08-19T06:51:06;21.55;;;16.60;;
22603;SDS011;11469;49.024;8.246;2022-08-19T06:53:32;18.38;;;15.57;;
22603;SDS011;11469;49.024;8.246;2022-08-19T06:55:59;20.15;;;16.95;;
22603;SDS011;11469;49.024;8.246;2022-08-19T06:58:30;17.33;;;15.43;;
22603;SDS011;11469;49.024;8.246;2022-08-19T07:00:58;19.98;;;16.13;;
22603;SDS011;11469;49.024;8.246;2022-08-19T07:03:25;17.83;;;15.35;;
22603;SDS011;11469;49.024;8.246;2022-08-19T07:05:51;18.92;;;14.45;;
22603;SDS011;11469;49.024;8.246;2022-08-19T07:08:17;18.10;;;14.70;;
22603;SDS011;11469;49.024;8.246;2022-08-19T07:10:43;19.95;;;14.77;;
22603;SDS011;11469;49.024;8.246;2022-08-19T07:13:09;20.33;;;14.90;;
22603;SDS011;11469;49.024;8.246;2022-08-19T07:15:36;15.73;;;13.68;;
22603;SDS011;11469;49.024;8.246;2022-08-19T07:18:02;18.48;;;13.68;;
22603;SDS011;11469;49.024;8.246;2022-08-19T07:20:28;15.85;;;12.07;;
22603;SDS011;11469;49.024;8.246;2022-08-19T07:22:53;19.30;;;13.02;;
22603;SDS011;11469;49.024;8.246;2022-08-19T07:25:19;15.95;;;12.73;;
22603;SDS011;11469;49.024;8.246;2022-08-19T07:27:48;16.23;;;12.65;;
22603;SDS011;11469;49.024;8.246;2022-08-19T07:30:13;17.73;;;12.73;;
22603;SDS011;11469;49.024;8.246;2022-08-19T07:32:39;17.58;;;11.35;;
22603;SDS011;11469;49.024;8.246;2022-08-19T07:35:06;14.40;;;12.27;;
22603;SDS011;11469;49.024;8.246;2022-08-19T07:37:32;17.27;;;12.00;;
22603;SDS011;11469;49.024;8.246;2022-08-19T07:39:59;16.17;;;11.73;;
22603;SDS011;11469;49.024;8.246;2022-08-19T07:42:25;13.45;;;11.23;;
22603;SDS011;11469;49.024;8.246;2022-08-19T07:44:50;14.60;;;10.90;;
22603;SDS011;11469;49.024;8.246;2022-08-19T07:47:16;15.73;;;10.30;;
22603;SDS011;11469;49.024;8.246;2022-08-19T07:49:42;14.88;;;11.38;;
22603;SDS011;11469;49.024;8.246;2022-08-19T07:52:08;14.27;;;10.40;;
22603;SDS011;11469;49.024;8.246;2022-08-19T07:54:36;12.73;;;10.70;;
22603;SDS011;11469;49.024;8.246;2022-08-19T07:57:03;14.43;;;10.52;;
22603;SDS011;11469;49.024;8.246;2022-08-19T07:59:29;13.43;;;10.07;;
22603;SDS011;11469;49.024;8.246;2022-08-19T08:01:56;16.17;;;9.50;;
22603;SDS011;11469;49.024;8.246;2022-08-19T08:04:24;16.58;;;9.93;;
22603;SDS011;11469;49.024;8.246;2022-08-19T08:07:08;14.13;;;8.68;;
22603;SDS011;11469;49.024;8.246;2022-08-19T08:09:52;15.05;;;10.25;;
22603;SDS011;11469;49.024;8.246;2022-08-19T08:12:20;12.20;;;8.98;;
22603;SDS011;11469;49.024;8.246;2022-08-19T08:14:50;18.63;;;9.18;;
22603;SDS011;11469;49.024;8.246;2022-08-19T08:17:18;11.35;;;8.43;;
22603;SDS011;11469;49.024;8.246;2022-08-19T08:19:47;13.45;;;9.85;;
22603;SDS011;11469;49.024;8.246;2022-08-19T08:22:17;10.68;;;8.52;;
22603;SDS011;11469;49.024;8.246;2022-08-19T08:25:15;16.05;;;9.70;;
22603;SDS011;11469;49.024;8.246;2022-08-19T08:27:43;24.35;;;10.10;;
22603;SDS011;11469;49.024;8.246;2022-08-19T08:30:12;21.50;;;9.48;;
22603;SDS011;11469;49.024;8.246;2022-08-19T08:32:40;13.20;;;9.25;;
22603;SDS011;11469;49.024;8.246;2022-08-19T08:35:07;15.25;;;8.07;;
22603;SDS011;11469;49.024;8.246;2022-08-19T08:37:34;14.82;;;8.55;;
22603;SDS011;11469;49.024;8.246;2022-08-19T08:40:02;12.73;;;7.72;;
22603;SDS011;11469;49.024;8.246;2022-08-19T08:42:53;9.95;;;7.15;;
22603;SDS011;11469;49.024;8.246;2022-08-19T08:45:25;16.38;;;8.95;;
22603;SDS011;11469;49.024;8.246;2022-08-19T08:47:52;14.32;;;8.10;;
22603;SDS011;11469;49.024;8.246;2022-08-19T08:50:39;11.60;;;7.97;;
22603;SDS011;11469;49.024;8.246;2022-08-19T08:53:07;16.85;;;8.27;;
22603;SDS011;11469;49.024;8.246;2022-08-19T08:55:35;10.82;;;6.82;;
22603;SDS011;11469;49.024;8.246;2022-08-19T08:58:03;13.80;;;9.10;;
22603;SDS011;11469;49.024;8.246;2022-08-19T09:00:34;13.65;;;7.82;;
22603;SDS011;11469;49.024;8.246;2022-08-19T09:03:17;12.77;;;8.73;;
22603;SDS011;11469;49.024;8.246;2022-08-19T09:08:27;14.43;;;8.13;;
22603;SDS011;11469;49.024;8.246;2022-08-19T09:11:06;12.77;;;7.57;;
22603;SDS011;11469;49.024;8.246;2022-08-19T09:14:05;13.05;;;8.40;;
22603;SDS011;11469;49.024;8.246;2022-08-19T09:16:38;12.13;;;7.95;;
22603;SDS011;11469;49.024;8.246;2022-08-19T09:19:05;15.77;;;7.60;;
22603;SDS011;11469;49.024;8.246;2022-08-19T09:21:32;11.18;;;8.07;;
22603;SDS011;11469;49.024;8.246;2022-08-19T09:23:59;14.88;;;7.82;;
22603;SDS011;11469;49.024;8.246;2022-08-19T09:26:28;11.23;;;8.07;;
22603;SDS011;11469;49.024;8.246;2022-08-19T09:28:54;11.77;;;7.80;;
22603;SDS011;11469;49.024;8.246;2022-08-19T09:31:21;12.23;;;8.20;;
22603;SDS011;11469;49.024;8.246;2022-08-19T09:33:49;11.98;;;8.68;;
22603;SDS011;11469;49.024;8.246;2022-08-19T09:36:16;10.38;;;7.15;;
22603;SDS011;11469;49.024;8.246;2022-08-19T09:38:43;12.57;;;8.48;;
22603;SDS011;11469;49.024;8.246;2022-08-19T09:41:14;15.95;;;8.20;;
22603;SDS011;11469;49.024;8.246;2022-08-19T09:43:47;13.15;;;7.85;;
22603;SDS011;11469;49.024;8.246;2022-08-19T09:46:17;11.40;;;7.18;;
22603;SDS011;11469;49.024;8.246;2022-08-19T09:48:44;17.15;;;7.90;;
22603;SDS011;11469;49.024;8.246;2022-08-19T09:51:14;13.32;;;8.20;;
22603;SDS011;11469;49.024;8.246;2022-08-19T09:53:42;12.00;;;7.85;;
22603;SDS011;11469;49.024;8.246;2022-08-19T09:56:12;14.00;;;8.40;;
22603;SDS011;11469;49.024;8.246;2022-08-19T09:58:38;10.43;;;7.32;;
22603;SDS011;11469;49.024;8.246;2022-08-19T10:01:05;9.45;;;6.30;;
22603;SDS011;11469;49.024;8.246;2022-08-19T10:03:31;11.43;;;6.82;;
22603;SDS011;11469;49.024;8.246;2022-08-19T10:05:59;10.43;;;7.78;;
22603;SDS011;11469;49.024;8.246;2022-08-19T10:08:26;14.07;;;7.13;;
22603;SDS011;11469;49.024;8.246;2022-08-19T10:10:54;13.65;;;8.15;;
22603;SDS011;11469;49.024;8.246;2022-08-19T10:13:21;11.52;;;8.27;;
22603;SDS011;11469;49.024;8.246;2022-08-19T10:15:50;10.65;;;6.97;;
22603;SDS011;11469;49.024;8.246;2022-08-19T10:18:16;16.67;;;7.13;;
22603;SDS011;11469;49.024;8.246;2022-08-19T10:20:44;13.98;;;6.78;;
22603;SDS011;11469;49.024;8.246;2022-08-19T10:23:10;9.60;;;6.88;;
22603;SDS011;11469;49.024;8.246;2022-08-19T10:25:37;10.93;;;7.15;;
22603;SDS011;11469;49.024;8.246;2022-08-19T10:28:03;11.98;;;6.82;;
22603;SDS011;11469;49.024;8.246;2022-08-19T10:30:29;11.80;;;7.15;;
22603;SDS011;11469;49.024;8.246;2022-08-19T10:32:54;13.98;;;7.05;;
22603;SDS011;11469;49.024;8.246;2022-08-19T10:35:20;9.00;;;7.07;;
22603;SDS011;11469;49.024;8.246;2022-08-19T10:37:45;10.27;;;6.85;;
22603;SDS011;11469;49.024;8.246;2022-08-19T10:40:11;11.23;;;6.82;;
22603;SDS011;11469;49.024;8.246;2022-08-19T10:42:37;10.55;;;6.30;;
22603;SDS011;11469;49.024;8.246;2022-08-19T10:45:03;8.02;;;6.18;;
22603;SDS011;11469;49.024;8.246;2022-08-19T10:47:30;9.48;;;6.65;;
22603;SDS011;11469;49.024;8.246;2022-08-19T10:49:56;9.27;;;5.72;;
22603;SDS011;11469;49.024;8.246;2022-08-19T10:52:41;11.43;;;6.28;;
22603;SDS011;11469;49.024;8.246;2022-08-19T10:55:11;9.30;;;5.88;;
22603;SDS011;11469;49.024;8.246;2022-08-19T10:57:55;8.73;;;5.47;;
22603;SDS011;11469;49.024;8.246;2022-08-19T11:00:22;9.55;;;6.03;;
22603;SDS011;11469;49.024;8.246;2022-08-19T11:02:48;7.60;;;5.28;;
22603;SDS011;11469;49.024;8.246;2022-08-19T11:05:14;10.32;;;6.95;;
22603;SDS011;11469;49.024;8.246;2022-08-19T11:07:40;8.90;;;6.05;;
22603;SDS011;11469;49.024;8.246;2022-08-19T11:10:07;9.10;;;5.50;;
22603;SDS011;11469;49.024;8.246;2022-08-19T11:12:36;11.48;;;5.75;;
22603;SDS011;11469;49.024;8.246;2022-08-19T11:15:04;10.82;;;5.72;;
22603;SDS011;11469;49.024;8.246;2022-08-19T11:17:34;9.10;;;6.65;;
22603;SDS011;11469;49.024;8.246;2022-08-19T11:20:00;10.85;;;6.15;;
22603;SDS011;11469;49.024;8.246;2022-08-19T11:22:29;8.57;;;5.20;;
22603;SDS011;11469;49.024;8.246;2022-08-19T11:24:54;7.35;;;5.93;;
22603;SDS011;11469;49.024;8.246;2022-08-19T11:27:20;8.40;;;5.50;;
22603;SDS011;11469;49.024;8.246;2022-08-19T11:29:46;9.60;;;6.65;;
22603;SDS011;11469;49.024;8.246;2022-08-19T11:32:11;9.25;;;6.10;;
22603;SDS011;11469;49.024;8.246;2022-08-19T11:34:37;11.25;;;5.20;;
22603;SDS011;11469;49.024;8.246;2022-08-19T11:37:04;11.13;;;5.78;;
22603;SDS011;11469;49.024;8.246;2022-08-19T11:39:31;8.93;;;5.28;;
22603;SDS011;11469;49.024;8.246;2022-08-19T11:41:58;10.60;;;5.82;;
22603;SDS011;11469;49.024;8.246;2022-08-19T11:44:24;6.65;;;5.03;;
22603;SDS011;11469;49.024;8.246;2022-08-19T11:46:50;8.98;;;5.32;;
22603;SDS011;11469;49.024;8.246;2022-08-19T11:49:18;6.25;;;5.30;;
22603;SDS011;11469;49.024;8.246;2022-08-19T11:51:44;6.70;;;5.40;;
22603;SDS011;11469;49.024;8.246;2022-08-19T11:54:11;7.10;;;5.70;;
22603;SDS011;11469;49.024;8.246;2022-08-19T11:56:38;10.98;;;5.40;;
22603;SDS011;11469;49.024;8.246;2022-08-19T11:59:04;8.50;;;5.72;;
22603;SDS011;11469;49.024;8.246;2022-08-19T12:01:30;7.15;;;5.30;;
22603;SDS011;11469;49.024;8.246;2022-08-19T12:03:56;8.00;;;5.90;;
22603;SDS011;11469;49.024;8.246;2022-08-19T12:06:25;12.18;;;6.18;;
22603;SDS011;11469;49.024;8.246;2022-08-19T12:08:53;10.15;;;7.05;;
22603;SDS011;11469;49.024;8.246;2022-08-19T12:11:20;12.20;;;6.40;;
22603;SDS011;11469;49.024;8.246;2022-08-19T12:13:45;7.25;;;4.90;;
22603;SDS011;11469;49.024;8.246;2022-08-19T12:16:12;6.47;;;4.80;;
22603;SDS011;11469;49.024;8.246;2022-08-19T12:18:43;6.95;;;4.70;;
22603;SDS011;11469;49.024;8.246;2022-08-19T12:21:11;4.65;;;4.13;;
22603;SDS011;11469;49.024;8.246;2022-08-19T12:23:39;5.93;;;4.05;;
22603;SDS011;11469;49.024;8.246;2022-08-19T12:26:05;11.73;;;4.80;;
22603;SDS011;11469;49.024;8.246;2022-08-19T12:28:31;7.57;;;5.03;;
22603;SDS011;11469;49.024;8.246;2022-08-19T12:30:56;6.13;;;4.38;;
22603;SDS011;11469;49.024;8.246;2022-08-19T12:33:22;3.83;;;3.20;;
22603;SDS011;11469;49.024;8.246;2022-08-19T12:35:50;3.45;;;2.88;;
22603;SDS011;11469;49.024;8.246;2022-08-19T12:38:15;7.15;;;3.05;;
22603;SDS011;11469;49.024;8.246;2022-08-19T12:40:41;3.10;;;2.80;;
22603;SDS011;11469;49.024;8.246;2022-08-19T12:43:11;5.78;;;2.88;;
22603;SDS011;11469;49.024;8.246;2022-08-19T12:45:36;3.00;;;2.67;;
22603;SDS011;11469;49.024;8.246;2022-08-19T12:48:02;4.32;;;2.60;;
22603;SDS011;11469;49.024;8.246;2022-08-19T12:50:29;3.30;;;2.58;;
22603;SDS011;11469;49.024;8.246;2022-08-19T12:52:55;5.63;;;2.92;;
22603;SDS011;11469;49.024;8.246;2022-08-19T12:55:22;4.40;;;2.80;;
22603;SDS011;11469;49.024;8.246;2022-08-19T12:57:47;5.63;;;2.17;;
22603;SDS011;11469;49.024;8.246;2022-08-19T13:00:18;5.28;;;2.13;;
22603;SDS011;11469;49.024;8.246;2022-08-19T13:02:46;3.50;;;2.33;;
22603;SDS011;11469;49.024;8.246;2022-08-19T13:05:16;3.53;;;2.28;;
22603;SDS011;11469;49.024;8.246;2022-08-19T13:07:48;3.17;;;2.20;;
22603;SDS011;11469;49.024;8.246;2022-08-19T13:10:15;2.40;;;2.15;;
22603;SDS011;11469;49.024;8.246;2022-08-19T13:12:45;3.20;;;2.00;;
22603;SDS011;11469;49.024;8.246;2022-08-19T13:15:12;2.65;;;2.30;;
22603;SDS011;11469;49.024;8.246;2022-08-19T13:17:38;4.57;;;2.33;;
22603;SDS011;11469;49.024;8.246;2022-08-19T13:20:05;5.03;;;2.80;;
22603;SDS011;11469;49.024;8.246;2022-08-19T13:22:35;4.93;;;2.70;;
22603;SDS011;11469;49.024;8.246;2022-08-19T13:25:02;6.93;;;2.83;;
22603;SDS011;11469;49.024;8.246;2022-08-19T13:27:31;4.20;;;2.83;;
22603;SDS011;11469;49.024;8.246;2022-08-19T13:29:56;4.60;;;2.72;;
22603;SDS011;11469;49.024;8.246;2022-08-19T13:32:40;2.80;;;2.38;;
22603;SDS011;11469;49.024;8.246;2022-08-19T13:35:24;3.58;;;2.75;;
22603;SDS011;11469;49.024;8.246;2022-08-19T13:37:49;4.00;;;2.63;;
22603;SDS011;11469;49.024;8.246;2022-08-19T13:40:19;3.53;;;2.58;;
22603;SDS011;11469;49.024;8.246;2022-08-19T13:42:49;3.72;;;2.60;;
22603;SDS011;11469;49.024;8.246;2022-08-19T13:45:17;2.95;;;2.13;;
22603;SDS011;11469;49.024;8.246;2022-08-19T13:47:51;4.80;;;2.63;;
22603;SDS011;11469;49.024;8.246;2022-08-19T13:50:19;3.80;;;2.80;;
22603;SDS011;11469;49.024;8.246;2022-08-19T13:52:50;2.63;;;2.42;;
22603;SDS011;11469;49.024;8.246;2022-08-19T13:55:17;3.88;;;2.60;;
22603;SDS011;11469;49.024;8.246;2022-08-19T13:57:42;6.18;;;2.92;;
22603;SDS011;11469;49.024;8.246;2022-08-19T14:00:09;3.85;;;2.70;;
22603;SDS011;11469;49.024;8.246;2022-08-19T14:02:38;3.05;;;2.47;;
22603;SDS011;11469;49.024;8.246;2022-08-19T14:05:05;5.05;;;2.88;;
22603;SDS011;11469;49.024;8.246;2022-08-19T14:07:33;4.13;;;2.45;;
22603;SDS011;11469;49.024;8.246;2022-08-19T14:09:59;4.28;;;2.85;;
22603;SDS011;11469;49.024;8.246;2022-08-19T14:12:24;3.83;;;3.10;;
22603;SDS011;11469;49.024;8.246;2022-08-19T14:14:50;3.70;;;2.80;;
22603;SDS011;11469;49.024;8.246;2022-08-19T14:17:15;4.90;;;2.78;;
22603;SDS011;11469;49.024;8.246;2022-08-19T14:19:41;3.42;;;2.58;;
22603;SDS011;11469;49.024;8.246;2022-08-19T14:22:07;6.07;;;3.08;;
22603;SDS011;11469;49.024;8.246;2022-08-19T14:24:33;4.25;;;3.00;;
22603;SDS011;11469;49.024;8.246;2022-08-19T14:26:58;4.38;;;2.65;;
22603;SDS011;11469;49.024;8.246;2022-08-19T14:29:24;8.20;;;3.40;;
22603;SDS011;11469;49.024;8.246;2022-08-19T14:31:50;3.97;;;2.67;;
22603;SDS011;11469;49.024;8.246;2022-08-19T14:34:15;6.45;;;3.35;;
22603;SDS011;11469;49.024;8.246;2022-08-19T14:36:41;9.98;;;2.85;;
22603;SDS011;11469;49.024;8.246;2022-08-19T14:39:07;4.88;;;2.95;;